Time,TemperatureF,DewpointF,PressureIn,WindDirection,WindDirectionDegrees,WindSpeedMPH,WindSpeedGustMPH,Humidity,HourlyPrecipIn,Conditions,Clouds,dailyrainin,SoftwareType,DateUTC
2016-02-06 00:04:00,32.0,2.5,28.74,East,90,2.6,2.6,28,0.00,,SKC,0.00,WeatherDisplay:10.37,2016-02-06 05:04:00,
2016-02-06 00:09:00,31.8,2.4,28.74,ENE,67,0.0,2.3,28,0.00,,SKC,0.00,WeatherDisplay:10.37,2016-02-06 05:09:00,
2016-02-06 00:14:00,31.8,2.4,28.74,ENE,67,0.0,0.0,28,0.00,,SKC,0.00,WeatherDisplay:10.37,2016-02-06 05:14:00,
2016-02-06 00:19:00,31.8,2.4,28.75,East,90,1.3,2.4,28,0.00,,SKC,0.00,WeatherDisplay:10.37,2016-02-06 05:19:00,
2016-02-06 00:29:00,31.8,2.4,28.77,ESE,112,1.7,2.4,28,0.00,,SKC,0.00,WeatherDisplay:10.37,2016-02-06 05:29:00,
2016-02-06 00:34:00,31.8,2.4,28.77,ENE,67,1.7,2.4,28,0.00,,SKC,0.00,WeatherDisplay:10.37,2016-02-06 05:34:00,
2016-02-06 00:44:00,31.5,2.0,28.73,NE,45,0.3,2.4,28,0.00,,SKC,0.00,WeatherDisplay:10.37,2016-02-06 05:44:00,
2016-02-06 00:54:00,31.3,1.9,28.76,East,90,1.0,2.4,28,0.00,,SKC,0.00,WeatherDisplay:10.37,2016-02-06 05:54:00,
2016-02-06 00:59:00,31.1,1.7,28.76,East,90,0.0,2.4,28,0.00,,SKC,0.00,WeatherDisplay:10.37,2016-02-06 05:59:00,
2016-02-06 01:04:00,30.9,1.6,28.76,East,90,0.0,2.4,28,0.00,,SKC,0.00,WeatherDisplay:10.37,2016-02-06 06:04:00,
2016-02-06 01:09:00,30.9,1.6,28.76,East,90,0.0,0.0,28,0.00,,SKC,0.00,WeatherDisplay:10.37,2016-02-06 06:09:00,
2016-02-06 01:14:00,30.9,1.6,28.76,East,90,0.0,0.0,28,0.00,,SKC,0.00,WeatherDisplay:10.37,2016-02-06 06:14:00,
2016-02-06 01:19:00,30.9,1.6,28.75,East,90,0.0,0.0,28,0.00,,SKC,0.00,WeatherDisplay:10.37,2016-02-06 06:19:00,
2016-02-06 01:24:00,30.7,1.4,28.75,East,90,0.0,1.3,28,0.00,,SKC,0.00,WeatherDisplay:10.37,2016-02-06 06:24:00,
2016-02-06 01:29:00,30.7,1.4,28.74,East,90,1.0,1.3,28,0.00,,SKC,0.00,WeatherDisplay:10.37,2016-02-06 06:29:00,
2016-02-06 01:34:00,30.6,1.3,28.75,East,90,1.0,1.3,28,0.00,,SKC,0.00,WeatherDisplay:10.37,2016-02-06 06:34:00,
2016-02-06 01:39:00,30.6,1.3,28.75,East,90,0.0,1.3,28,0.00,,SKC,0.00,WeatherDisplay:10.37,2016-02-06 06:39:00,
2016-02-06 01:44:00,30.6,1.3,28.74,East,90,0.0,1.3,28,0.00,,SKC,0.00,WeatherDisplay:10.37,2016-02-06 06:44:00,
2016-02-06 01:49:00,30.4,1.1,28.73,NNE,22,0.0,1.3,28,0.00,,SKC,0.00,WeatherDisplay:10.37,2016-02-06 06:49:00,
2016-02-06 01:54:00,30.4,1.1,28.72,NNE,22,0.0,1.3,28,0.00,,SKC,0.00,WeatherDisplay:10.37,2016-02-06 06:54:00,
2016-02-06 01:59:00,30.2,0.9,28.73,North,0,0.0,1.3,28,0.00,,SKC,0.00,WeatherDisplay:10.37,2016-02-06 06:59:00,
2016-02-06 02:04:00,30.2,0.9,28.73,North,0,0.0,1.3,28,0.00,,SKC,0.00,WeatherDisplay:10.37,2016-02-06 07:04:00,
2016-02-06 02:09:00,30.2,0.9,28.73,North,0,0.0,1.3,28,0.00,,SKC,0.00,WeatherDisplay:10.37,2016-02-06 07:09:00,
2016-02-06 02:14:00,30.2,0.9,28.72,ESE,112,0.0,1.3,28,0.00,,SKC,0.00,WeatherDisplay:10.37,2016-02-06 07:14:00,
2016-02-06 02:19:00,28.6,-0.5,28.71,East,90,0.0,1.2,28,0.00,,SKC,0.00,WeatherDisplay:10.37,2016-02-06 07:19:00,
2016-02-06 02:24:00,28.6,-0.5,28.71,East,90,0.0,1.2,28,0.00,,SKC,0.00,WeatherDisplay:10.37,2016-02-06 07:24:00,
2016-02-06 02:29:00,28.6,-0.5,28.72,East,90,0.0,1.2,28,0.00,,SKC,0.00,WeatherDisplay:10.37,2016-02-06 07:29:00,
2016-02-06 02:34:00,28.8,-0.3,28.72,East,90,0.0,1.2,28,0.00,,SKC,0.00,WeatherDisplay:10.37,2016-02-06 07:34:00,
2016-02-06 02:39:00,28.9,-0.1,28.76,East,90,0.0,1.2,28,0.00,,SKC,0.00,WeatherDisplay:10.37,2016-02-06 07:39:00,
2016-02-06 02:44:00,28.9,-0.1,28.75,East,90,1.0,1.2,28,0.00,,SKC,0.00,WeatherDisplay:10.37,2016-02-06 07:44:00,
2016-02-06 02:49:00,29.1,0.0,28.76,SE,135,0.0,1.2,28,0.00,,SKC,0.00,WeatherDisplay:10.37,2016-02-06 07:49:00,
2016-02-06 02:54:00,29.1,0.0,28.76,SE,135,0.0,1.2,28,0.00,,SKC,0.00,WeatherDisplay:10.37,2016-02-06 07:54:00,
2016-02-06 02:59:00,29.1,0.0,28.76,SE,135,0.0,1.2,28,0.00,,SKC,0.00,WeatherDisplay:10.37,2016-02-06 07:59:00,
2016-02-06 03:04:00,29.1,0.0,28.75,SE,135,0.0,1.2,28,0.00,,SKC,0.00,WeatherDisplay:10.37,2016-02-06 08:04:00,
2016-02-06 03:09:00,29.5,0.3,28.75,SE,135,0.0,0.0,28,0.00,,SKC,0.00,WeatherDisplay:10.37,2016-02-06 08:09:00,
2016-02-06 03:14:00,29.5,0.3,28.75,ESE,112,0.0,0.0,28,0.00,,SKC,0.00,WeatherDisplay:10.37,2016-02-06 08:14:00,
2016-02-06 03:19:00,29.5,0.3,28.76,ESE,112,0.0,0.0,28,0.00,,SKC,0.00,WeatherDisplay:10.37,2016-02-06 08:19:00,
2016-02-06 03:24:00,29.5,0.3,28.76,ESE,112,0.0,0.0,28,0.00,,SKC,0.00,WeatherDisplay:10.37,2016-02-06 08:24:00,
2016-02-06 03:29:00,29.5,0.3,28.75,ESE,112,0.0,0.0,28,0.00,,SKC,0.00,WeatherDisplay:10.37,2016-02-06 08:29:00,
2016-02-06 03:34:00,29.5,0.3,28.74,ESE,112,0.0,0.0,28,0.00,,SKC,0.00,WeatherDisplay:10.37,2016-02-06 08:34:00,
2016-02-06 03:39:00,29.5,0.3,28.74,ESE,112,0.0,0.0,28,0.00,,SKC,0.00,WeatherDisplay:10.37,2016-02-06 08:39:00,
2016-02-06 03:44:00,29.7,0.5,28.75,NE,45,0.0,1.7,28,0.00,,SKC,0.00,WeatherDisplay:10.37,2016-02-06 08:44:00,
2016-02-06 03:49:00,29.8,0.6,28.75,NE,45,0.0,1.7,28,0.00,,SKC,0.00,WeatherDisplay:10.37,2016-02-06 08:49:00,
2016-02-06 03:54:00,29.8,0.6,28.75,NE,45,0.0,1.7,28,0.00,,SKC,0.00,WeatherDisplay:10.37,2016-02-06 08:54:00,
2016-02-06 03:59:00,29.8,0.6,28.73,ESE,112,2.6,2.6,28,0.00,,SKC,0.00,WeatherDisplay:10.37,2016-02-06 08:59:00,
2016-02-06 04:04:00,29.7,0.5,28.74,ESE,112,0.0,2.6,28,0.00,,SKC,0.00,WeatherDisplay:10.37,2016-02-06 09:04:00,
2016-02-06 04:09:00,29.5,0.3,28.75,ENE,67,0.3,1.2,28,0.00,,SKC,0.00,WeatherDisplay:10.37,2016-02-06 09:09:00,
2016-02-06 04:14:00,29.3,0.2,28.75,ESE,112,0.0,1.3,28,0.00,,SKC,0.00,WeatherDisplay:10.37,2016-02-06 09:14:00,
2016-02-06 04:19:00,29.3,0.2,28.76,ESE,112,0.0,1.3,28,0.00,,SKC,0.00,WeatherDisplay:10.37,2016-02-06 09:19:00,
2016-02-06 04:24:00,28.9,-0.1,28.74,SSE,157,0.3,1.3,28,0.00,,SKC,0.00,WeatherDisplay:10.37,2016-02-06 09:24:00,
2016-02-06 04:29:00,28.9,-0.1,28.74,SSE,157,0.3,1.3,28,0.00,,SKC,0.00,WeatherDisplay:10.37,2016-02-06 09:29:00,
2016-02-06 04:34:00,28.9,-0.1,28.74,SSE,157,0.3,1.3,28,0.00,,SKC,0.00,WeatherDisplay:10.37,2016-02-06 09:34:00,
2016-02-06 04:39:00,28.9,-0.1,28.75,SSE,157,0.3,1.3,28,0.00,,SKC,0.00,WeatherDisplay:10.37,2016-02-06 09:39:00,
2016-02-06 04:44:00,28.8,-0.3,28.74,ESE,112,0.0,1.3,28,0.00,,SKC,0.00,WeatherDisplay:10.37,2016-02-06 09:44:00,
2016-02-06 04:49:00,28.8,-0.3,28.73,ENE,67,0.0,1.3,28,0.00,,SKC,0.00,WeatherDisplay:10.37,2016-02-06 09:49:00,
2016-02-06 04:54:00,28.9,-0.1,28.73,SE,135,1.7,1.7,28,0.00,,SKC,0.00,WeatherDisplay:10.37,2016-02-06 09:54:00,
2016-02-06 05:04:00,29.1,0.0,28.74,North,0,0.7,2.6,28,0.00,,SKC,0.00,WeatherDisplay:10.37,2016-02-06 10:04:00,
2016-02-06 05:09:00,29.5,0.3,28.70,North,0,0.0,0.0,28,0.00,,SKC,0.00,WeatherDisplay:10.37,2016-02-06 10:09:00,
2016-02-06 05:14:00,29.5,0.3,28.72,South,180,2.8,2.8,28,0.00,,SKC,0.00,WeatherDisplay:10.37,2016-02-06 10:14:00,
2016-02-06 05:19:00,29.5,0.3,28.72,NNW,337,2.8,2.8,28,0.00,,SKC,0.00,WeatherDisplay:10.37,2016-02-06 10:19:00,
2016-02-06 05:24:00,29.5,0.3,28.75,NNW,337,2.8,2.8,28,0.00,,SKC,0.00,WeatherDisplay:10.37,2016-02-06 10:24:00,
2016-02-06 05:29:00,29.8,0.6,28.71,South,180,1.0,3.8,28,0.00,,SKC,0.00,WeatherDisplay:10.37,2016-02-06 10:29:00,
2016-02-06 05:39:00,29.8,0.6,28.74,SSE,157,2.0,3.8,28,0.00,,SKC,0.00,WeatherDisplay:10.37,2016-02-06 10:39:00,
2016-02-06 05:44:00,29.8,0.6,28.73,SSE,157,2.0,3.8,28,0.00,,SKC,0.00,WeatherDisplay:10.37,2016-02-06 10:44:00,
2016-02-06 05:49:00,29.8,0.6,28.74,SSE,157,2.0,3.8,28,0.00,,SKC,0.00,WeatherDisplay:10.37,2016-02-06 10:49:00,
2016-02-06 05:54:00,29.8,0.6,28.76,SSE,157,2.0,3.8,28,0.00,,SKC,0.00,WeatherDisplay:10.37,2016-02-06 10:54:00,
2016-02-06 05:59:00,29.8,0.6,28.78,SSE,157,2.0,3.8,28,0.00,,SKC,0.00,WeatherDisplay:10.37,2016-02-06 10:59:00,
2016-02-06 06:04:00,29.8,0.6,28.76,SSE,157,2.0,3.8,28,0.00,,SKC,0.00,WeatherDisplay:10.37,2016-02-06 11:04:00,
2016-02-06 06:09:00,29.8,0.6,28.75,SSE,157,2.0,3.8,28,0.00,,SKC,0.00,WeatherDisplay:10.37,2016-02-06 11:09:00,
2016-02-06 06:14:00,29.8,0.6,28.77,SSE,157,2.0,3.8,28,0.00,,SKC,0.00,WeatherDisplay:10.37,2016-02-06 11:14:00,
2016-02-06 06:19:00,29.8,0.6,28.72,SSE,157,2.0,3.8,28,0.00,,SKC,0.00,WeatherDisplay:10.37,2016-02-06 11:19:00,
2016-02-06 06:24:00,29.8,0.6,28.74,SSE,157,2.0,3.8,28,0.00,,SKC,0.00,WeatherDisplay:10.37,2016-02-06 11:24:00,
2016-02-06 06:29:00,29.8,0.6,28.74,SSE,157,2.0,3.8,28,0.00,,SKC,0.00,WeatherDisplay:10.37,2016-02-06 11:29:00,
2016-02-06 06:34:00,27.1,-1.7,28.74,NNW,337,2.6,3.5,28,0.00,,SKC,0.00,WeatherDisplay:10.37,2016-02-06 11:34:00,
2016-02-06 06:39:00,27.3,-1.6,28.74,South,180,1.0,3.5,28,0.00,,SKC,0.00,WeatherDisplay:10.37,2016-02-06 11:39:00,
2016-02-06 06:44:00,27.3,-1.6,28.75,SE,135,2.4,3.5,28,0.00,,SKC,0.00,WeatherDisplay:10.37,2016-02-06 11:44:00,
2016-02-06 06:49:00,27.3,-1.6,28.77,SE,135,2.4,3.5,28,0.00,,SKC,0.00,WeatherDisplay:10.37,2016-02-06 11:49:00,
2016-02-06 06:54:00,27.0,-1.9,28.78,ESE,112,1.7,3.5,28,0.00,,SKC,0.00,WeatherDisplay:10.37,2016-02-06 11:54:00,
2016-02-06 06:59:00,27.0,-1.9,28.76,ESE,112,1.7,3.5,28,0.00,,SKC,0.00,WeatherDisplay:10.37,2016-02-06 11:59:00,
2016-02-06 07:04:00,27.0,-1.9,28.77,East,90,1.0,3.5,28,0.00,,SKC,0.00,WeatherDisplay:10.37,2016-02-06 12:04:00,
2016-02-06 07:09:00,27.0,-1.9,28.77,East,90,1.0,3.5,28,0.00,,SKC,0.00,WeatherDisplay:10.37,2016-02-06 12:09:00,
2016-02-06 07:14:00,27.0,-1.9,28.78,East,90,1.0,3.5,28,0.00,,SKC,0.00,WeatherDisplay:10.37,2016-02-06 12:14:00,
2016-02-06 07:19:00,27.3,-1.6,28.77,ESE,112,1.3,3.5,28,0.00,,SKC,0.00,WeatherDisplay:10.37,2016-02-06 12:19:00,
2016-02-06 07:24:00,27.3,-1.6,28.77,ESE,112,1.3,3.5,28,0.00,,SKC,0.00,WeatherDisplay:10.37,2016-02-06 12:24:00,
2016-02-06 07:29:00,27.3,-1.6,28.78,ESE,112,1.3,3.5,28,0.00,,SKC,0.00,WeatherDisplay:10.37,2016-02-06 12:29:00,
2016-02-06 07:34:00,27.3,-1.6,28.80,ESE,112,1.3,3.5,28,0.00,,SKC,0.00,WeatherDisplay:10.37,2016-02-06 12:34:00,
2016-02-06 07:39:00,27.3,-1.6,28.79,ESE,112,1.3,3.5,28,0.00,,SKC,0.00,WeatherDisplay:10.37,2016-02-06 12:39:00,
2016-02-06 07:44:00,27.3,-1.6,28.77,ESE,112,1.3,3.5,28,0.00,,SKC,0.00,WeatherDisplay:10.37,2016-02-06 12:44:00,
2016-02-06 07:49:00,27.3,-1.6,28.78,ESE,112,1.3,3.5,28,0.00,,SKC,0.00,WeatherDisplay:10.37,2016-02-06 12:49:00,
2016-02-06 07:59:00,27.3,-1.6,28.74,ESE,112,1.3,3.5,28,0.00,,SKC,0.00,WeatherDisplay:10.37,2016-02-06 12:59:00,
2016-02-06 08:04:00,27.3,-1.6,28.79,ESE,112,1.3,3.5,28,0.00,,SKC,0.00,WeatherDisplay:10.37,2016-02-06 13:04:00,
2016-02-06 08:09:00,27.3,-1.6,28.79,ESE,112,1.3,3.5,28,0.00,,SKC,0.00,WeatherDisplay:10.37,2016-02-06 13:09:00,
2016-02-06 08:14:00,27.3,-1.6,28.74,ESE,112,1.3,3.5,28,0.00,,SKC,0.00,WeatherDisplay:10.37,2016-02-06 13:14:00,
2016-02-06 08:19:00,27.3,-1.6,28.75,ESE,112,1.3,3.5,28,0.00,,SKC,0.00,WeatherDisplay:10.37,2016-02-06 13:19:00,
2016-02-06 08:24:00,27.3,-1.6,28.79,ESE,112,1.3,3.5,28,0.00,,SKC,0.00,WeatherDisplay:10.37,2016-02-06 13:24:00,
2016-02-06 08:29:00,27.3,-1.6,28.79,ESE,112,1.3,3.5,28,0.00,,SKC,0.00,WeatherDisplay:10.37,2016-02-06 13:29:00,
2016-02-06 08:34:00,27.3,-1.6,28.74,ESE,112,1.3,3.5,28,0.00,,SKC,0.00,WeatherDisplay:10.37,2016-02-06 13:34:00,
2016-02-06 08:44:00,27.3,-1.6,28.80,ESE,112,1.3,3.5,28,0.00,,SKC,0.00,WeatherDisplay:10.37,2016-02-06 13:44:00,
2016-02-06 08:49:00,27.3,-1.6,28.79,ESE,112,1.3,3.5,28,0.00,,SKC,0.00,WeatherDisplay:10.37,2016-02-06 13:49:00,
2016-02-06 08:54:00,27.3,-1.6,28.79,ESE,112,1.3,3.5,28,0.00,,SKC,0.00,WeatherDisplay:10.37,2016-02-06 13:54:00,
2016-02-06 08:59:00,27.7,-1.2,28.74,East,90,0.0,3.5,28,0.00,,SKC,0.00,WeatherDisplay:10.37,2016-02-06 13:59:00,
2016-02-06 09:04:00,27.3,-1.6,28.74,East,90,0.0,2.6,28,0.00,,SKC,0.00,WeatherDisplay:10.37,2016-02-06 14:04:00,
2016-02-06 09:09:00,27.3,-1.6,28.80,East,90,2.0,2.3,28,0.00,,SKC,0.00,WeatherDisplay:10.37,2016-02-06 14:09:00,
2016-02-06 09:14:00,27.3,-1.6,28.80,East,90,2.0,2.3,28,0.00,,SKC,0.00,WeatherDisplay:10.37,2016-02-06 14:14:00,
2016-02-06 09:19:00,29.8,0.6,28.81,ENE,67,2.4,2.4,28,0.00,,SKC,0.00,WeatherDisplay:10.37,2016-02-06 14:19:00,
2016-02-06 09:29:00,29.5,0.3,28.78,ENE,67,0.0,2.4,28,0.00,,SKC,0.00,WeatherDisplay:10.37,2016-02-06 14:29:00,
2016-02-06 09:34:00,30.2,0.9,28.77,ENE,67,1.7,2.4,28,0.00,,SKC,0.00,WeatherDisplay:10.37,2016-02-06 14:34:00,
2016-02-06 09:39:00,30.2,0.9,28.76,ENE,67,1.7,2.4,28,0.00,,SKC,0.00,WeatherDisplay:10.37,2016-02-06 14:39:00,
2016-02-06 09:44:00,31.5,2.0,28.77,ENE,67,2.4,2.8,28,0.00,,SKC,0.00,WeatherDisplay:10.37,2016-02-06 14:44:00,
2016-02-06 09:49:00,31.8,2.4,28.78,ENE,67,1.0,2.8,28,0.00,,SKC,0.00,WeatherDisplay:10.37,2016-02-06 14:49:00,
2016-02-06 09:54:00,33.1,3.5,28.80,East,90,0.0,2.8,28,0.00,,SKC,0.00,WeatherDisplay:10.37,2016-02-06 14:54:00,
2016-02-06 09:59:00,35.1,5.2,28.79,ENE,67,1.7,2.8,28,0.00,,SKC,0.00,WeatherDisplay:10.37,2016-02-06 14:59:00,
2016-02-06 10:04:00,35.4,5.5,28.77,ENE,67,1.7,2.8,28,0.00,,SKC,0.00,WeatherDisplay:10.37,2016-02-06 15:04:00,
2016-02-06 10:09:00,36.7,6.6,28.77,East,90,2.8,2.8,28,0.00,,SKC,0.00,WeatherDisplay:10.37,2016-02-06 15:09:00,
2016-02-06 10:14:00,37.2,7.1,28.78,East,90,3.3,3.5,28,0.00,,SKC,0.00,WeatherDisplay:10.37,2016-02-06 15:14:00,
2016-02-06 10:19:00,39.0,8.6,28.80,NNE,22,2.8,3.5,28,0.00,,SKC,0.00,WeatherDisplay:10.37,2016-02-06 15:19:00,
2016-02-06 10:24:00,39.0,8.6,28.80,NNE,22,2.8,3.5,28,0.00,,SKC,0.00,WeatherDisplay:10.37,2016-02-06 15:24:00,
2016-02-06 10:29:00,40.5,9.9,28.80,ENE,67,2.0,3.5,28,0.00,,SKC,0.00,WeatherDisplay:10.37,2016-02-06 15:29:00,
2016-02-06 10:34:00,40.5,9.9,28.79,ENE,67,2.0,3.5,28,0.00,,SKC,0.00,WeatherDisplay:10.37,2016-02-06 15:34:00,
2016-02-06 10:39:00,43.2,12.2,28.78,NE,45,3.3,3.5,28,0.00,,SKC,0.00,WeatherDisplay:10.37,2016-02-06 15:39:00,
2016-02-06 10:44:00,44.6,13.5,28.79,North,0,2.6,3.5,28,0.00,,SKC,0.00,WeatherDisplay:10.37,2016-02-06 15:44:00,
2016-02-06 10:54:00,45.1,13.9,28.80,NE,45,0.3,3.5,28,0.00,,SKC,0.00,WeatherDisplay:10.37,2016-02-06 15:54:00,
2016-02-06 10:59:00,45.1,13.9,28.81,NE,45,0.3,3.5,28,0.00,,SKC,0.00,WeatherDisplay:10.37,2016-02-06 15:59:00,
2016-02-06 11:09:00,49.1,17.3,28.83,NW,315,1.0,1.2,28,0.00,,SKC,0.00,WeatherDisplay:10.37,2016-02-06 16:09:00,
2016-02-06 11:14:00,49.1,17.3,28.81,NW,315,1.0,1.2,28,0.00,,SKC,0.00,WeatherDisplay:10.37,2016-02-06 16:14:00,
2016-02-06 11:19:00,49.1,17.3,28.80,NW,315,1.0,1.2,28,0.00,,SKC,0.00,WeatherDisplay:10.37,2016-02-06 16:19:00,
2016-02-06 11:24:00,52.9,20.6,28.80,NW,315,2.8,5.8,28,0.00,,SKC,0.00,WeatherDisplay:10.37,2016-02-06 16:24:00,